Monday, January 21, 2019, 10:17 PM GMT
Back to Local

CWVU, Brier Island, N. S.

Location: , , Canada Lat: 44.286
Local Time: 10:17 PM GMT (22:17 GMT) Lon: -66.347
Time Zone: GMT Elev: 52 ft

Show me the last for .
Show Coded

Time T Td Feel RH Dir Speed Gust Alt SLP Vis Weather Sky Remarks
2019-01-21 21:00 18 16 3 93 300° 17 - - 29.61 0 Peak wind: 25 mph (22 kts) from 290° at 05 min
2019-01-21 20:00 18 16 3 91 280° 16 - - 29.59 0 Peak wind: 23 mph (20 kts) from 290° at 38 min
2019-01-21 19:00 19 17 2 93 290° 16 22 - 29.55 0 Peak wind: 23 mph (20 kts) from 270° at 48 min
2019-01-21 18:00 20 19 5 95 280° 16 - - 29.54 0 Peak wind: 21 mph (19 kts) from 280° at 08 min
2019-01-21 17:00 20 19 6 95 280° 16 - - 29.53 0 Peak wind: 23 mph (20 kts) from 290° at 48 min
2019-01-21 16:00 20 20 6 96 280° 16 - - 29.53 0 Peak wind: 21 mph (19 kts) from 280° at 49 min
2019-01-21 15:00 21 21 8 98 280° 15 - - 29.51 0 Peak wind: 19 mph (17 kts) from 280° at 42 min
2019-01-21 14:00 21 21 9 100 280° 13 - - 29.46 0 None
2019-01-21 13:00 21 21 9 100 280° 13 - - 29.45 0 None
2019-01-21 12:00 22 - 9 0 300° 14 - - 29.40 0 Peak wind: 20 mph (18 kts) from 280° at 24 min
2019-01-21 11:00 23 - 10 0 290° 16 - - 29.36 0 Peak wind: 24 mph (21 kts) from 280° at 20 min
2019-01-21 10:00 25 - 11 0 280° 20 - - 29.31 0 Peak wind: 26 mph (23 kts) from 280° at 10 min
Pressure rising rapidly
2019-01-21 09:00 27 - 13 0 280° 23 - - 29.24 0 Peak wind: 27 mph (24 kts) from 260° at 12 min
2019-01-21 08:00 28 - 14 0 270° 22 - - 29.26 0 Peak wind: 26 mph (23 kts) from 270° at 56 min
Pressure rising rapidly
2019-01-21 07:00 30 - 18 0 270° 20 - - 29.20 0 Peak wind: 23 mph (20 kts) from 280° at 59 min
2019-01-21 06:00 35 - 26 0 270° 16 - - 29.17 0 None
2019-01-21 05:00 38 - 32 0 250° 9 - - 29.15 0 Peak wind: 19 mph (17 kts) from 180° at 16 min
2019-01-21 04:00 43 - 35 0 170° 13 20 - 29.13 0 Peak wind: 23 mph (20 kts) from 180° at 22 min
1-hr Precip Total: 0.01"
2019-01-21 03:00 44 - 35 0 170° 17 24 - 29.16 0 Peak wind: 33 mph (29 kts) from 150° at 03 min
1-hr Precip Total: 0.01"
2019-01-21 02:00 44 - 34 0 160° 24 32 - 29.17 0 Peak wind: 39 mph (34 kts) from 150° at 15 min
2019-01-21 01:00 46 - 35 0 160° 28 38 - 29.19 0 Peak wind: 44 mph (39 kts) from 170° at 03 min
2019-01-21 00:00 48 48 37 100 170° 32 46 - 29.22 0 Peak wind: 56 mph (49 kts) from 140° at 04 min
1-hr Precip Total: 0.20"
2019-01-20 23:00 46 - 36 0 160° 26 33 - 29.23 0 Peak wind: 36 mph (32 kts) from 180° at 24 min
Pressure falling rapidly
1-hr Precip Total: 0.26"

Support USWX by starting your Amazon purchase here.